TISX/STX METAR and TAF weather

Enter ICAO airport designator
Station Type Date Time Source
TISX METAR 2021/10/20 06:53 UTC NOAA

TISX 200653Z AUTO 36004KT 10SM BKN075 26/25 A2995 RMK AO2 SLP140 T02560250


Station Type Date Time Source
TISX Decoded METAR 2021/10/20 06:53 UTC NOAA

Christiansted, Henry E. Rohlsen Airport, Virgin Islands (TISX) 17-42N 064-48W 17M
Oct 20, 2021 - 02:53 AM EDT / 2021.10.20 0653 UTC
Wind: from the N (360 degrees) at 5 MPH (4 KT):0
Visibility: 10 mile(s):0
Sky conditions: mostly cloudy
Temperature: 78.1 F (25.6 C)
Dew Point: 77.0 F (25.0 C)
Relative Humidity: 96%
Pressure (altimeter): 29.95 in. Hg (1014 hPa)
ob: TISX 200653Z AUTO 36004KT 10SM BKN075 26/25 A2995 RMK AO2 SLP140 T02560250
cycle: 7

Station Type Date Time Source
TISX TAF 2021/10/20 06:45 UTC NOAA

TAF TISX 200536Z 2006/2106 VRB03KT P6SM VCSH SCT025 SCT040
FM201400 08007KT P6SM FEW030 SCT050
FM201700 11011KT P6SM VCSH SCT030 SCT050
FM202300 11008KT P6SM VCSH FEW030 SCT050

Example: see airport list